sensor_id;sensor_type;location;lat;lon;timestamp;temperature;humidity
21355;DHT22;10835;50.148;19.760;2022-12-17T00:00:28;15.10;42.30
21355;DHT22;10835;50.148;19.760;2022-12-17T00:03:15;15.40;41.90
21355;DHT22;10835;50.148;19.760;2022-12-17T00:06:01;15.50;41.60
21355;DHT22;10835;50.148;19.760;2022-12-17T00:08:47;15.80;41.20
21355;DHT22;10835;50.148;19.760;2022-12-17T00:11:41;15.50;40.80
21355;DHT22;10835;50.148;19.760;2022-12-17T00:14:26;15.90;40.90
21355;DHT22;10835;50.148;19.760;2022-12-17T00:17:12;15.70;40.70
21355;DHT22;10835;50.148;19.760;2022-12-17T00:19:59;15.90;40.50
21355;DHT22;10835;50.148;19.760;2022-12-17T00:22:44;15.70;40.60
21355;DHT22;10835;50.148;19.760;2022-12-17T00:25:30;15.80;40.90
21355;DHT22;10835;50.148;19.760;2022-12-17T00:28:15;15.00;41.40
21355;DHT22;10835;50.148;19.760;2022-12-17T00:31:01;15.10;41.80
21355;DHT22;10835;50.148;19.760;2022-12-17T00:33:47;14.80;41.80
21355;DHT22;10835;50.148;19.760;2022-12-17T00:36:35;15.10;42.30
21355;DHT22;10835;50.148;19.760;2022-12-17T00:39:21;14.60;42.50
21355;DHT22;10835;50.148;19.760;2022-12-17T00:42:12;14.20;43.30
21355;DHT22;10835;50.148;19.760;2022-12-17T00:44:58;13.30;43.50
21355;DHT22;10835;50.148;19.760;2022-12-17T00:47:43;12.10;45.60
21355;DHT22;10835;50.148;19.760;2022-12-17T00:50:29;12.70;46.00
21355;DHT22;10835;50.148;19.760;2022-12-17T00:53:15;11.30;46.90
21355;DHT22;10835;50.148;19.760;2022-12-17T00:56:15;11.00;48.00
21355;DHT22;10835;50.148;19.760;2022-12-17T00:59:00;10.50;49.60
21355;DHT22;10835;50.148;19.760;2022-12-17T01:01:46;11.00;49.70
21355;DHT22;10835;50.148;19.760;2022-12-17T01:04:32;11.60;48.50
21355;DHT22;10835;50.148;19.760;2022-12-17T01:07:18;11.50;48.30
21355;DHT22;10835;50.148;19.760;2022-12-17T01:10:05;12.10;48.20
21355;DHT22;10835;50.148;19.760;2022-12-17T01:12:51;12.80;47.30
21355;DHT22;10835;50.148;19.760;2022-12-17T01:15:36;13.00;46.60
21355;DHT22;10835;50.148;19.760;2022-12-17T01:18:30;13.80;45.70
21355;DHT22;10835;50.148;19.760;2022-12-17T01:21:16;14.20;44.70
21355;DHT22;10835;50.148;19.760;2022-12-17T01:24:01;14.50;43.50
21355;DHT22;10835;50.148;19.760;2022-12-17T01:26:48;15.00;43.60
21355;DHT22;10835;50.148;19.760;2022-12-17T01:29:48;15.20;42.30
21355;DHT22;10835;50.148;19.760;2022-12-17T01:32:34;15.40;41.70
21355;DHT22;10835;50.148;19.760;2022-12-17T01:35:19;15.00;41.50
21355;DHT22;10835;50.148;19.760;2022-12-17T01:38:09;14.80;42.20
21355;DHT22;10835;50.148;19.760;2022-12-17T01:40:55;15.30;41.90
21355;DHT22;10835;50.148;19.760;2022-12-17T01:43:38;15.60;41.40
21355;DHT22;10835;50.148;19.760;2022-12-17T01:46:27;15.80;41.20
21355;DHT22;10835;50.148;19.760;2022-12-17T01:49:14;16.00;40.70
21355;DHT22;10835;50.148;19.760;2022-12-17T01:51:59;16.20;40.40
21355;DHT22;10835;50.148;19.760;2022-12-17T01:54:46;16.40;40.00
21355;DHT22;10835;50.148;19.760;2022-12-17T01:57:32;16.40;39.60
21355;DHT22;10835;50.148;19.760;2022-12-17T02:00:20;16.20;38.80
21355;DHT22;10835;50.148;19.760;2022-12-17T02:03:19;16.20;39.40
21355;DHT22;10835;50.148;19.760;2022-12-17T02:06:11;15.90;39.80
21355;DHT22;10835;50.148;19.760;2022-12-17T02:09:04;15.40;40.00
21355;DHT22;10835;50.148;19.760;2022-12-17T02:11:58;14.50;40.90
21355;DHT22;10835;50.148;19.760;2022-12-17T02:14:49;13.10;43.00
21355;DHT22;10835;50.148;19.760;2022-12-17T02:17:42;12.90;43.90
21355;DHT22;10835;50.148;19.760;2022-12-17T02:20:30;12.80;44.10
21355;DHT22;10835;50.148;19.760;2022-12-17T02:23:24;12.40;45.00
21355;DHT22;10835;50.148;19.760;2022-12-17T02:26:18;12.80;44.80
21355;DHT22;10835;50.148;19.760;2022-12-17T02:29:07;12.50;44.50
21355;DHT22;10835;50.148;19.760;2022-12-17T02:31:53;13.00;44.50
21355;DHT22;10835;50.148;19.760;2022-12-17T02:34:44;12.00;45.20
21355;DHT22;10835;50.148;19.760;2022-12-17T02:37:30;12.30;45.10
21355;DHT22;10835;50.148;19.760;2022-12-17T02:40:18;13.20;44.70
21355;DHT22;10835;50.148;19.760;2022-12-17T02:43:05;12.80;43.70
21355;DHT22;10835;50.148;19.760;2022-12-17T02:45:54;12.40;44.20
21355;DHT22;10835;50.148;19.760;2022-12-17T02:48:40;12.70;44.60
21355;DHT22;10835;50.148;19.760;2022-12-17T02:51:29;12.90;44.20
21355;DHT22;10835;50.148;19.760;2022-12-17T02:54:16;12.60;44.60
21355;DHT22;10835;50.148;19.760;2022-12-17T02:57:03;13.10;44.70
21355;DHT22;10835;50.148;19.760;2022-12-17T02:59:49;12.70;44.20
21355;DHT22;10835;50.148;19.760;2022-12-17T03:02:35;13.60;44.50
21355;DHT22;10835;50.148;19.760;2022-12-17T03:05:21;14.00;43.80
21355;DHT22;10835;50.148;19.760;2022-12-17T03:08:11;14.10;43.30
21355;DHT22;10835;50.148;19.760;2022-12-17T03:10:57;14.00;43.60
21355;DHT22;10835;50.148;19.760;2022-12-17T03:13:43;14.40;43.10
21355;DHT22;10835;50.148;19.760;2022-12-17T03:16:28;14.50;42.10
21355;DHT22;10835;50.148;19.760;2022-12-17T03:19:15;14.60;41.80
21355;DHT22;10835;50.148;19.760;2022-12-17T03:22:01;14.60;41.60
21355;DHT22;10835;50.148;19.760;2022-12-17T03:24:46;14.10;41.90
21355;DHT22;10835;50.148;19.760;2022-12-17T03:27:31;13.80;42.50
21355;DHT22;10835;50.148;19.760;2022-12-17T03:30:17;13.90;42.00
21355;DHT22;10835;50.148;19.760;2022-12-17T03:33:08;13.60;42.50
21355;DHT22;10835;50.148;19.760;2022-12-17T03:36:05;13.30;43.20
21355;DHT22;10835;50.148;19.760;2022-12-17T03:38:51;12.80;43.70
21355;DHT22;10835;50.148;19.760;2022-12-17T03:41:36;12.80;44.40
21355;DHT22;10835;50.148;19.760;2022-12-17T03:44:22;13.30;44.20
21355;DHT22;10835;50.148;19.760;2022-12-17T03:47:07;13.90;42.70
21355;DHT22;10835;50.148;19.760;2022-12-17T03:49:53;14.00;42.30
21355;DHT22;10835;50.148;19.760;2022-12-17T03:52:39;14.10;42.40
21355;DHT22;10835;50.148;19.760;2022-12-17T03:55:25;14.00;42.10
21355;DHT22;10835;50.148;19.760;2022-12-17T03:58:10;13.50;42.60
21355;DHT22;10835;50.148;19.760;2022-12-17T04:00:55;13.70;42.80
21355;DHT22;10835;50.148;19.760;2022-12-17T04:03:53;13.20;42.70
21355;DHT22;10835;50.148;19.760;2022-12-17T04:06:38;13.40;43.00
21355;DHT22;10835;50.148;19.760;2022-12-17T04:09:38;13.30;43.40
21355;DHT22;10835;50.148;19.760;2022-12-17T04:12:23;13.80;42.30
21355;DHT22;10835;50.148;19.760;2022-12-17T04:15:09;13.00;42.70
21355;DHT22;10835;50.148;19.760;2022-12-17T04:17:58;12.90;43.80
21355;DHT22;10835;50.148;19.760;2022-12-17T04:20:43;13.10;43.50
21355;DHT22;10835;50.148;19.760;2022-12-17T04:23:29;12.70;43.30
21355;DHT22;10835;50.148;19.760;2022-12-17T04:26:16;12.60;44.10
21355;DHT22;10835;50.148;19.760;2022-12-17T04:29:02;13.10;43.50
21355;DHT22;10835;50.148;19.760;2022-12-17T04:31:52;13.10;42.90
21355;DHT22;10835;50.148;19.760;2022-12-17T04:34:38;12.70;43.30
21355;DHT22;10835;50.148;19.760;2022-12-17T04:37:23;12.50;43.90
21355;DHT22;10835;50.148;19.760;2022-12-17T04:40:10;12.60;44.40
21355;DHT22;10835;50.148;19.760;2022-12-17T04:43:12;13.60;43.10
21355;DHT22;10835;50.148;19.760;2022-12-17T04:45:58;12.80;43.40
21355;DHT22;10835;50.148;19.760;2022-12-17T04:48:51;13.70;43.00
21355;DHT22;10835;50.148;19.760;2022-12-17T04:51:39;14.00;42.20
21355;DHT22;10835;50.148;19.760;2022-12-17T04:54:25;14.00;41.40
21355;DHT22;10835;50.148;19.760;2022-12-17T04:57:10;13.10;41.60
21355;DHT22;10835;50.148;19.760;2022-12-17T04:59:57;12.60;43.20
21355;DHT22;10835;50.148;19.760;2022-12-17T05:02:42;13.40;43.30
21355;DHT22;10835;50.148;19.760;2022-12-17T05:05:28;13.70;41.70
21355;DHT22;10835;50.148;19.760;2022-12-17T05:08:13;13.00;42.80
21355;DHT22;10835;50.148;19.760;2022-12-17T05:11:06;12.30;44.10
21355;DHT22;10835;50.148;19.760;2022-12-17T05:14:07;13.00;43.60
21355;DHT22;10835;50.148;19.760;2022-12-17T05:16:56;12.80;42.80
21355;DHT22;10835;50.148;19.760;2022-12-17T05:19:49;12.90;43.30
21355;DHT22;10835;50.148;19.760;2022-12-17T05:22:34;12.80;42.90
21355;DHT22;10835;50.148;19.760;2022-12-17T05:25:19;12.70;43.50
21355;DHT22;10835;50.148;19.760;2022-12-17T05:28:05;13.50;43.10
21355;DHT22;10835;50.148;19.760;2022-12-17T05:30:51;14.20;42.50
21355;DHT22;10835;50.148;19.760;2022-12-17T05:33:38;13.90;42.00
21355;DHT22;10835;50.148;19.760;2022-12-17T05:36:24;14.40;41.90
21355;DHT22;10835;50.148;19.760;2022-12-17T05:39:09;14.20;41.50
21355;DHT22;10835;50.148;19.760;2022-12-17T05:41:55;13.70;41.60
21355;DHT22;10835;50.148;19.760;2022-12-17T05:44:40;13.30;42.50
21355;DHT22;10835;50.148;19.760;2022-12-17T05:47:26;13.00;42.90
21355;DHT22;10835;50.148;19.760;2022-12-17T05:50:12;12.50;43.50
21355;DHT22;10835;50.148;19.760;2022-12-17T05:53:02;12.30;44.20
21355;DHT22;10835;50.148;19.760;2022-12-17T05:55:49;12.20;44.40
21355;DHT22;10835;50.148;19.760;2022-12-17T05:58:35;12.10;44.90
21355;DHT22;10835;50.148;19.760;2022-12-17T06:01:20;12.60;45.10
21355;DHT22;10835;50.148;19.760;2022-12-17T06:04:07;12.80;44.50
21355;DHT22;10835;50.148;19.760;2022-12-17T06:06:54;12.50;44.10
21355;DHT22;10835;50.148;19.760;2022-12-17T06:09:53;12.80;44.40
21355;DHT22;10835;50.148;19.760;2022-12-17T06:12:39;12.90;44.30
21355;DHT22;10835;50.148;19.760;2022-12-17T06:15:25;12.40;44.20
21355;DHT22;10835;50.148;19.760;2022-12-17T06:18:19;12.00;44.90
21355;DHT22;10835;50.148;19.760;2022-12-17T06:21:04;12.10;45.40
21355;DHT22;10835;50.148;19.760;2022-12-17T06:23:51;11.70;46.00
21355;DHT22;10835;50.148;19.760;2022-12-17T06:26:37;12.30;45.60
21355;DHT22;10835;50.148;19.760;2022-12-17T06:29:22;12.70;45.10
21355;DHT22;10835;50.148;19.760;2022-12-17T06:32:07;12.70;44.40
21355;DHT22;10835;50.148;19.760;2022-12-17T06:34:53;12.60;45.00
21355;DHT22;10835;50.148;19.760;2022-12-17T06:37:38;13.30;44.30
21355;DHT22;10835;50.148;19.760;2022-12-17T06:40:25;13.60;44.40
21355;DHT22;10835;50.148;19.760;2022-12-17T06:43:07;14.10;43.10
21355;DHT22;10835;50.148;19.760;2022-12-17T06:45:53;13.30;42.80
21355;DHT22;10835;50.148;19.760;2022-12-17T06:48:38;12.40;43.90
21355;DHT22;10835;50.148;19.760;2022-12-17T06:51:24;12.70;44.50
21355;DHT22;10835;50.148;19.760;2022-12-17T06:54:10;12.20;44.30
21355;DHT22;10835;50.148;19.760;2022-12-17T06:56:56;11.60;45.60
21355;DHT22;10835;50.148;19.760;2022-12-17T06:59:42;11.10;46.40
21355;DHT22;10835;50.148;19.760;2022-12-17T07:02:27;11.20;47.00
21355;DHT22;10835;50.148;19.760;2022-12-17T07:05:15;11.10;47.00
21355;DHT22;10835;50.148;19.760;2022-12-17T07:08:03;12.00;46.70
21355;DHT22;10835;50.148;19.760;2022-12-17T07:10:49;11.90;45.90
21355;DHT22;10835;50.148;19.760;2022-12-17T07:13:37;11.60;46.10
21355;DHT22;10835;50.148;19.760;2022-12-17T07:16:22;10.90;47.10
21355;DHT22;10835;50.148;19.760;2022-12-17T07:19:08;11.50;47.40
21355;DHT22;10835;50.148;19.760;2022-12-17T07:21:53;12.60;46.30
21355;DHT22;10835;50.148;19.760;2022-12-17T07:24:40;13.40;44.80
21355;DHT22;10835;50.148;19.760;2022-12-17T07:27:26;14.00;43.30
21355;DHT22;10835;50.148;19.760;2022-12-17T07:30:13;14.30;42.70
21355;DHT22;10835;50.148;19.760;2022-12-17T07:32:59;14.50;42.00
21355;DHT22;10835;50.148;19.760;2022-12-17T07:35:45;14.50;41.90
21355;DHT22;10835;50.148;19.760;2022-12-17T07:38:30;14.50;41.90
21355;DHT22;10835;50.148;19.760;2022-12-17T07:41:16;14.50;42.40
21355;DHT22;10835;50.148;19.760;2022-12-17T07:44:04;13.60;42.40
21355;DHT22;10835;50.148;19.760;2022-12-17T07:46:50;13.60;42.90
21355;DHT22;10835;50.148;19.760;2022-12-17T07:49:36;13.60;42.70
21355;DHT22;10835;50.148;19.760;2022-12-17T07:52:21;13.70;42.50
21355;DHT22;10835;50.148;19.760;2022-12-17T07:55:07;13.50;42.70
21355;DHT22;10835;50.148;19.760;2022-12-17T07:57:57;12.80;43.50
21355;DHT22;10835;50.148;19.760;2022-12-17T08:00:43;12.70;43.60
21355;DHT22;10835;50.148;19.760;2022-12-17T08:03:30;13.20;44.00
21355;DHT22;10835;50.148;19.760;2022-12-17T08:06:15;13.40;43.40
21355;DHT22;10835;50.148;19.760;2022-12-17T08:09:11;13.20;44.00
21355;DHT22;10835;50.148;19.760;2022-12-17T08:11:56;13.40;43.60
21355;DHT22;10835;50.148;19.760;2022-12-17T08:14:42;13.10;43.50
21355;DHT22;10835;50.148;19.760;2022-12-17T08:17:27;13.10;44.10
21355;DHT22;10835;50.148;19.760;2022-12-17T08:20:23;13.10;43.70
21355;DHT22;10835;50.148;19.760;2022-12-17T08:23:15;13.90;43.30
21355;DHT22;10835;50.148;19.760;2022-12-17T08:26:01;14.40;42.30
21355;DHT22;10835;50.148;19.760;2022-12-17T08:28:54;14.50;41.80
21355;DHT22;10835;50.148;19.760;2022-12-17T08:31:40;14.40;41.80
21355;DHT22;10835;50.148;19.760;2022-12-17T08:34:25;14.10;42.30
21355;DHT22;10835;50.148;19.760;2022-12-17T08:37:19;14.30;42.10
21355;DHT22;10835;50.148;19.760;2022-12-17T08:40:14;13.80;42.00
21355;DHT22;10835;50.148;19.760;2022-12-17T08:43:00;13.90;42.50
21355;DHT22;10835;50.148;19.760;2022-12-17T08:45:47;14.00;42.30
21355;DHT22;10835;50.148;19.760;2022-12-17T08:48:32;13.90;42.30
21355;DHT22;10835;50.148;19.760;2022-12-17T08:51:20;13.80;42.80
21355;DHT22;10835;50.148;19.760;2022-12-17T08:54:07;14.00;42.60
21355;DHT22;10835;50.148;19.760;2022-12-17T08:56:53;13.40;43.00
21355;DHT22;10835;50.148;19.760;2022-12-17T08:59:48;13.00;43.70
21355;DHT22;10835;50.148;19.760;2022-12-17T09:02:33;12.90;44.20
21355;DHT22;10835;50.148;19.760;2022-12-17T09:05:19;12.70;44.50
21355;DHT22;10835;50.148;19.760;2022-12-17T09:08:05;12.90;44.70
21355;DHT22;10835;50.148;19.760;2022-12-17T09:11:07;13.20;43.70
21355;DHT22;10835;50.148;19.760;2022-12-17T09:13:53;12.80;44.00
21355;DHT22;10835;50.148;19.760;2022-12-17T09:16:38;12.40;44.10
21355;DHT22;10835;50.148;19.760;2022-12-17T09:19:24;13.10;43.10
21355;DHT22;10835;50.148;19.760;2022-12-17T09:22:10;11.70;44.20
21355;DHT22;10835;50.148;19.760;2022-12-17T09:24:55;12.00;45.10
21355;DHT22;10835;50.148;19.760;2022-12-17T09:27:42;11.50;44.80
21355;DHT22;10835;50.148;19.760;2022-12-17T09:30:27;11.50;45.70
21355;DHT22;10835;50.148;19.760;2022-12-17T09:33:14;11.90;45.30
21355;DHT22;10835;50.148;19.760;2022-12-17T09:36:14;12.00;44.20
21355;DHT22;10835;50.148;19.760;2022-12-17T09:38:59;11.60;44.70
21355;DHT22;10835;50.148;19.760;2022-12-17T09:41:49;11.40;45.30
21355;DHT22;10835;50.148;19.760;2022-12-17T09:44:42;11.40;45.40
21355;DHT22;10835;50.148;19.760;2022-12-17T09:47:38;11.50;44.80
21355;DHT22;10835;50.148;19.760;2022-12-17T09:50:25;11.00;45.30
21355;DHT22;10835;50.148;19.760;2022-12-17T09:53:19;10.80;45.90
21355;DHT22;10835;50.148;19.760;2022-12-17T09:56:09;11.20;45.40
21355;DHT22;10835;50.148;19.760;2022-12-17T09:58:56;11.00;45.70
21355;DHT22;10835;50.148;19.760;2022-12-17T10:01:43;10.90;45.70
21355;DHT22;10835;50.148;19.760;2022-12-17T10:04:33;11.40;45.80
21355;DHT22;10835;50.148;19.760;2022-12-17T10:07:21;11.70;44.90
21355;DHT22;10835;50.148;19.760;2022-12-17T10:10:16;11.50;45.30
21355;DHT22;10835;50.148;19.760;2022-12-17T10:13:03;11.30;45.00
21355;DHT22;10835;50.148;19.760;2022-12-17T10:15:52;10.60;45.80
21355;DHT22;10835;50.148;19.760;2022-12-17T10:18:39;10.60;46.20
21355;DHT22;10835;50.148;19.760;2022-12-17T10:21:26;10.70;46.60
21355;DHT22;10835;50.148;19.760;2022-12-17T10:24:11;10.60;46.00
21355;DHT22;10835;50.148;19.760;2022-12-17T10:26:57;10.60;46.60
21355;DHT22;10835;50.148;19.760;2022-12-17T10:29:43;10.80;47.10
21355;DHT22;10835;50.148;19.760;2022-12-17T10:32:29;10.70;46.50
21355;DHT22;10835;50.148;19.760;2022-12-17T10:35:19;10.90;46.70
21355;DHT22;10835;50.148;19.760;2022-12-17T10:38:12;11.90;45.70
21355;DHT22;10835;50.148;19.760;2022-12-17T10:41:02;12.70;44.60
21355;DHT22;10835;50.148;19.760;2022-12-17T10:43:48;13.00;43.30
21355;DHT22;10835;50.148;19.760;2022-12-17T10:46:33;12.90;43.10
21355;DHT22;10835;50.148;19.760;2022-12-17T10:49:30;13.60;42.80
21355;DHT22;10835;50.148;19.760;2022-12-17T10:52:28;13.60;42.00
21355;DHT22;10835;50.148;19.760;2022-12-17T10:55:22;13.50;41.60
21355;DHT22;10835;50.148;19.760;2022-12-17T10:58:13;12.50;42.10
21355;DHT22;10835;50.148;19.760;2022-12-17T11:00:59;12.40;43.30
21355;DHT22;10835;50.148;19.760;2022-12-17T11:03:50;11.70;43.90
21355;DHT22;10835;50.148;19.760;2022-12-17T11:06:39;11.50;44.50
21355;DHT22;10835;50.148;19.760;2022-12-17T11:09:31;11.50;45.00
21355;DHT22;10835;50.148;19.760;2022-12-17T11:12:21;11.60;44.70
21355;DHT22;10835;50.148;19.760;2022-12-17T11:15:17;12.00;43.80
21355;DHT22;10835;50.148;19.760;2022-12-17T11:18:05;10.90;44.90
21355;DHT22;10835;50.148;19.760;2022-12-17T11:20:59;11.00;45.90
21355;DHT22;10835;50.148;19.760;2022-12-17T11:23:50;11.70;45.30
21355;DHT22;10835;50.148;19.760;2022-12-17T11:26:38;11.40;45.30
21355;DHT22;10835;50.148;19.760;2022-12-17T11:29:26;11.30;45.20
21355;DHT22;10835;50.148;19.760;2022-12-17T11:32:39;10.70;45.60
21355;DHT22;10835;50.148;19.760;2022-12-17T11:35:29;11.80;45.90
21355;DHT22;10835;50.148;19.760;2022-12-17T11:38:30;11.40;45.20
21355;DHT22;10835;50.148;19.760;2022-12-17T11:41:22;10.90;45.30
21355;DHT22;10835;50.148;19.760;2022-12-17T11:44:18;10.50;46.20
21355;DHT22;10835;50.148;19.760;2022-12-17T11:47:16;11.20;46.60
21355;DHT22;10835;50.148;19.760;2022-12-17T11:50:13;11.30;45.20
21355;DHT22;10835;50.148;19.760;2022-12-17T11:53:07;10.90;45.80
21355;DHT22;10835;50.148;19.760;2022-12-17T11:56:00;11.00;46.00
21355;DHT22;10835;50.148;19.760;2022-12-17T11:58:52;11.10;45.50
21355;DHT22;10835;50.148;19.760;2022-12-17T12:01:45;11.00;46.40
21355;DHT22;10835;50.148;19.760;2022-12-17T12:04:45;10.80;46.20
21355;DHT22;10835;50.148;19.760;2022-12-17T12:07:43;10.90;46.80
21355;DHT22;10835;50.148;19.760;2022-12-17T12:10:35;10.90;46.50
21355;DHT22;10835;50.148;19.760;2022-12-17T12:13:29;10.80;46.60
21355;DHT22;10835;50.148;19.760;2022-12-17T12:16:24;10.90;46.40
21355;DHT22;10835;50.148;19.760;2022-12-17T12:19:15;11.90;46.60
21355;DHT22;10835;50.148;19.760;2022-12-17T12:22:06;12.80;44.80
21355;DHT22;10835;50.148;19.760;2022-12-17T12:25:10;13.00;43.80
21355;DHT22;10835;50.148;19.760;2022-12-17T12:28:05;13.30;43.00
21355;DHT22;10835;50.148;19.760;2022-12-17T12:30:58;12.60;43.30
21355;DHT22;10835;50.148;19.760;2022-12-17T12:33:51;11.30;44.60
21355;DHT22;10835;50.148;19.760;2022-12-17T12:36:42;10.90;46.50
21355;DHT22;10835;50.148;19.760;2022-12-17T12:39:35;10.00;47.00
21355;DHT22;10835;50.148;19.760;2022-12-17T12:42:26;10.10;48.90
21355;DHT22;10835;50.148;19.760;2022-12-17T12:45:32;10.40;48.10
21355;DHT22;10835;50.148;19.760;2022-12-17T12:48:31;11.70;47.30
21355;DHT22;10835;50.148;19.760;2022-12-17T12:51:22;12.00;45.20
21355;DHT22;10835;50.148;19.760;2022-12-17T12:57:34;11.40;45.40
21355;DHT22;10835;50.148;19.760;2022-12-17T13:00:27;11.00;46.10
21355;DHT22;10835;50.148;19.760;2022-12-17T13:03:27;11.00;46.10
21355;DHT22;10835;50.148;19.760;2022-12-17T13:06:39;11.40;47.00
21355;DHT22;10835;50.148;19.760;2022-12-17T13:09:19;11.90;45.70
21355;DHT22;10835;50.148;19.760;2022-12-17T13:11:49;12.00;44.90
21355;DHT22;10835;50.148;19.760;2022-12-17T13:14:23;11.40;45.10
21355;DHT22;10835;50.148;19.760;2022-12-17T13:16:55;11.40;45.60
21355;DHT22;10835;50.148;19.760;2022-12-17T13:19:36;11.70;45.60
21355;DHT22;10835;50.148;19.760;2022-12-17T13:22:26;11.50;45.50
21355;DHT22;10835;50.148;19.760;2022-12-17T13:25:12;11.10;45.60
21355;DHT22;10835;50.148;19.760;2022-12-17T13:27:41;10.40;47.00
21355;DHT22;10835;50.148;19.760;2022-12-17T13:30:30;10.10;48.60
21355;DHT22;10835;50.148;19.760;2022-12-17T13:33:11;10.30;48.50
21355;DHT22;10835;50.148;19.760;2022-12-17T13:35:51;10.80;48.00
21355;DHT22;10835;50.148;19.760;2022-12-17T13:38:29;11.10;47.20
21355;DHT22;10835;50.148;19.760;2022-12-17T13:41:05;10.80;46.90
21355;DHT22;10835;50.148;19.760;2022-12-17T13:43:41;10.90;46.80
21355;DHT22;10835;50.148;19.760;2022-12-17T13:46:27;11.00;47.20
21355;DHT22;10835;50.148;19.760;2022-12-17T13:48:56;11.00;47.20
21355;DHT22;10835;50.148;19.760;2022-12-17T13:51:26;10.60;47.40
21355;DHT22;10835;50.148;19.760;2022-12-17T13:54:13;11.30;47.50
21355;DHT22;10835;50.148;19.760;2022-12-17T13:56:41;10.80;47.00
21355;DHT22;10835;50.148;19.760;2022-12-17T13:59:16;11.20;47.50
21355;DHT22;10835;50.148;19.760;2022-12-17T14:01:46;11.70;46.60
21355;DHT22;10835;50.148;19.760;2022-12-17T14:04:21;11.20;46.30
21355;DHT22;10835;50.148;19.760;2022-12-17T14:06:50;11.10;46.50
21355;DHT22;10835;50.148;19.760;2022-12-17T14:09:21;11.30;46.80
21355;DHT22;10835;50.148;19.760;2022-12-17T14:11:50;10.60;46.90
21355;DHT22;10835;50.148;19.760;2022-12-17T14:14:38;11.10;47.60
21355;DHT22;10835;50.148;19.760;2022-12-17T14:17:15;10.70;46.80
21355;DHT22;10835;50.148;19.760;2022-12-17T14:19:44;10.80;47.90
21355;DHT22;10835;50.148;19.760;2022-12-17T14:22:17;11.40;47.40
21355;DHT22;10835;50.148;19.760;2022-12-17T14:24:47;11.70;46.30
21355;DHT22;10835;50.148;19.760;2022-12-17T14:27:25;11.90;46.10
21355;DHT22;10835;50.148;19.760;2022-12-17T14:29:53;12.10;45.50
21355;DHT22;10835;50.148;19.760;2022-12-17T14:32:25;11.60;45.90
21355;DHT22;10835;50.148;19.760;2022-12-17T14:34:53;12.10;45.40
21355;DHT22;10835;50.148;19.760;2022-12-17T14:37:27;12.20;46.00
21355;DHT22;10835;50.148;19.760;2022-12-17T14:40:00;12.00;45.40
21355;DHT22;10835;50.148;19.760;2022-12-17T14:42:29;11.50;45.80
21355;DHT22;10835;50.148;19.760;2022-12-17T14:45:04;11.90;46.00
21355;DHT22;10835;50.148;19.760;2022-12-17T14:47:34;12.00;45.80
21355;DHT22;10835;50.148;19.760;2022-12-17T14:50:06;12.10;45.70
21355;DHT22;10835;50.148;19.760;2022-12-17T14:52:38;11.90;45.50
21355;DHT22;10835;50.148;19.760;2022-12-17T14:55:29;11.80;45.70
21355;DHT22;10835;50.148;19.760;2022-12-17T14:58:18;11.40;45.80
21355;DHT22;10835;50.148;19.760;2022-12-17T15:00:49;11.50;46.10
21355;DHT22;10835;50.148;19.760;2022-12-17T15:03:23;11.30;46.80
21355;DHT22;10835;50.148;19.760;2022-12-17T15:05:55;11.60;46.80
21355;DHT22;10835;50.148;19.760;2022-12-17T15:08:26;11.70;46.20
21355;DHT22;10835;50.148;19.760;2022-12-17T15:10:58;11.80;45.90
21355;DHT22;10835;50.148;19.760;2022-12-17T15:13:26;11.80;45.60
21355;DHT22;10835;50.148;19.760;2022-12-17T15:15:54;11.80;45.40
21355;DHT22;10835;50.148;19.760;2022-12-17T15:18:23;11.60;45.90
21355;DHT22;10835;50.148;19.760;2022-12-17T15:20:51;11.30;46.20
21355;DHT22;10835;50.148;19.760;2022-12-17T15:23:21;11.60;46.20
21355;DHT22;10835;50.148;19.760;2022-12-17T15:25:51;11.80;45.80
21355;DHT22;10835;50.148;19.760;2022-12-17T15:28:21;11.90;45.30
21355;DHT22;10835;50.148;19.760;2022-12-17T15:30:49;11.50;45.40
21355;DHT22;10835;50.148;19.760;2022-12-17T15:33:17;11.00;46.50
21355;DHT22;10835;50.148;19.760;2022-12-17T15:35:45;11.20;46.70
21355;DHT22;10835;50.148;19.760;2022-12-17T15:38:14;10.80;46.90
21355;DHT22;10835;50.148;19.760;2022-12-17T15:40:42;10.70;47.20
21355;DHT22;10835;50.148;19.760;2022-12-17T15:43:10;10.50;47.10
21355;DHT22;10835;50.148;19.760;2022-12-17T15:45:41;10.50;47.40
21355;DHT22;10835;50.148;19.760;2022-12-17T15:48:11;10.80;47.40
21355;DHT22;10835;50.148;19.760;2022-12-17T15:50:39;10.40;47.60
21355;DHT22;10835;50.148;19.760;2022-12-17T15:53:07;11.00;47.40
21355;DHT22;10835;50.148;19.760;2022-12-17T15:55:36;11.00;47.00
21355;DHT22;10835;50.148;19.760;2022-12-17T15:58:05;11.20;47.10
21355;DHT22;10835;50.148;19.760;2022-12-17T16:00:34;11.30;46.80
21355;DHT22;10835;50.148;19.760;2022-12-17T16:03:04;11.00;47.10
21355;DHT22;10835;50.148;19.760;2022-12-17T16:05:32;11.00;47.10
21355;DHT22;10835;50.148;19.760;2022-12-17T16:08:00;11.40;47.00
21355;DHT22;10835;50.148;19.760;2022-12-17T16:10:29;11.10;46.60
21355;DHT22;10835;50.148;19.760;2022-12-17T16:12:57;10.90;47.20
21355;DHT22;10835;50.148;19.760;2022-12-17T16:15:25;11.00;47.20
21355;DHT22;10835;50.148;19.760;2022-12-17T16:17:56;11.30;47.00
21355;DHT22;10835;50.148;19.760;2022-12-17T16:20:25;11.70;47.00
21355;DHT22;10835;50.148;19.760;2022-12-17T16:22:53;11.60;46.20
21355;DHT22;10835;50.148;19.760;2022-12-17T16:25:21;11.90;46.20
21355;DHT22;10835;50.148;19.760;2022-12-17T16:27:49;12.30;45.30
21355;DHT22;10835;50.148;19.760;2022-12-17T16:30:17;12.60;45.00
21355;DHT22;10835;50.148;19.760;2022-12-17T16:32:45;12.30;45.10
21355;DHT22;10835;50.148;19.760;2022-12-17T16:35:13;12.60;45.10
21355;DHT22;10835;50.148;19.760;2022-12-17T16:37:42;12.00;45.00
21355;DHT22;10835;50.148;19.760;2022-12-17T16:40:11;12.20;44.90
21355;DHT22;10835;50.148;19.760;2022-12-17T16:42:39;11.80;45.00
21355;DHT22;10835;50.148;19.760;2022-12-17T16:45:08;11.20;46.10
21355;DHT22;10835;50.148;19.760;2022-12-17T16:47:36;11.30;46.70
21355;DHT22;10835;50.148;19.760;2022-12-17T16:50:04;11.20;47.00
21355;DHT22;10835;50.148;19.760;2022-12-17T16:52:36;11.00;47.10
21355;DHT22;10835;50.148;19.760;2022-12-17T16:55:05;11.20;46.70
21355;DHT22;10835;50.148;19.760;2022-12-17T16:57:34;11.30;47.20
21355;DHT22;10835;50.148;19.760;2022-12-17T17:00:03;11.20;46.90
21355;DHT22;10835;50.148;19.760;2022-12-17T17:02:32;10.90;47.30
21355;DHT22;10835;50.148;19.760;2022-12-17T17:05:00;11.00;47.50